Time;durP1;ratioP1;P1;durP2;ratioP2;P2;SDS_P1;SDS_P2;PMS_P1;PMS_P2;Temp;Humidity;BMP_temperature;BMP_pressure;BME280_temperature;BME280_humidity;BME280_pressure;Samples;Min_cycle;Max_cycle;Signal;HPM_P1;HPM_P2
2024/02/02 00:00:57;;;;;;;8.23;4.27;;;5.20;98.00;;;;;;5012552;28;20485;-88
2024/02/02 00:03:25;;;;;;;13.03;6.00;;;5.30;98.00;;;;;;5015267;28;20470;-88
2024/02/02 00:05:52;;;;;;;19.93;8.37;;;5.30;98.00;;;;;;5015304;28;20461;-88
2024/02/02 00:08:20;;;;;;;16.70;7.10;;;5.20;98.00;;;;;;5014846;28;21037;-88
2024/02/02 00:10:47;;;;;;;14.20;5.77;;;5.30;98.00;;;;;;5015295;28;20479;-88
2024/02/02 00:13:14;;;;;;;11.97;5.70;;;5.20;98.00;;;;;;5015138;28;20466;-88
2024/02/02 00:15:42;;;;;;;17.53;5.77;;;5.20;98.00;;;;;;5014896;28;20458;-88
2024/02/02 00:18:09;;;;;;;12.00;5.67;;;5.20;98.00;;;;;;5014869;28;20461;-87
2024/02/02 00:20:37;;;;;;;12.50;6.23;;;5.30;98.00;;;;;;5014953;28;20498;-87
2024/02/02 00:23:05;;;;;;;14.83;6.60;;;5.20;98.00;;;;;;5015097;28;20540;-88
2024/02/02 00:25:32;;;;;;;14.80;6.87;;;5.10;98.00;;;;;;5014823;28;20489;-87
2024/02/02 00:27:59;;;;;;;13.47;5.67;;;5.20;98.00;;;;;;5014847;28;20952;-88
2024/02/02 00:30:26;;;;;;;12.90;5.87;;;5.30;98.00;;;;;;5014396;28;20566;-87
2024/02/02 00:32:53;;;;;;;9.27;4.83;;;5.30;98.00;;;;;;5015011;28;21026;-88
2024/02/02 00:35:20;;;;;;;10.60;5.63;;;5.40;98.00;;;;;;5014778;28;20456;-87
2024/02/02 00:37:49;;;;;;;10.77;4.80;;;5.40;98.00;;;;;;5014587;28;20463;-88
2024/02/02 00:40:16;;;;;;;12.73;5.53;;;5.40;98.00;;;;;;5014530;28;20475;-88
2024/02/02 00:42:44;;;;;;;13.00;5.77;;;5.30;98.00;;;;;;5014560;28;20473;-87
2024/02/02 00:45:11;;;;;;;12.57;5.63;;;5.20;98.00;;;;;;5014979;28;20835;-88
2024/02/02 00:47:38;;;;;;;14.33;5.37;;;5.10;98.00;;;;;;5014413;28;20464;-88
2024/02/02 00:50:06;;;;;;;12.07;5.60;;;5.00;98.00;;;;;;5014050;28;20494;-87
2024/02/02 00:52:33;;;;;;;14.67;5.47;;;5.00;98.00;;;;;;5014718;28;20465;-87
2024/02/02 00:55:02;;;;;;;11.73;4.80;;;4.90;98.00;;;;;;5014390;28;20462;-87
2024/02/02 00:57:30;;;;;;;13.77;5.30;;;4.90;98.00;;;;;;5014438;28;20476;-88
2024/02/02 00:59:57;;;;;;;9.63;4.90;;;4.90;98.00;;;;;;5013765;28;20471;-88
2024/02/02 01:02:24;;;;;;;7.57;4.57;;;4.80;98.00;;;;;;5014316;28;20493;-87
2024/02/02 01:04:52;;;;;;;8.70;4.20;;;4.90;98.00;;;;;;5014442;28;20486;-88
2024/02/02 01:07:19;;;;;;;10.53;4.80;;;4.90;98.00;;;;;;5014182;28;20463;-88
2024/02/02 01:09:46;;;;;;;8.20;4.30;;;5.00;98.00;;;;;;5013526;28;21038;-87
2024/02/02 01:12:15;;;;;;;8.50;4.30;;;4.90;98.00;;;;;;5013154;28;20461;-87
2024/02/02 01:14:42;;;;;;;13.57;4.63;;;4.90;98.00;;;;;;5014247;28;20767;-87
2024/02/02 01:17:09;;;;;;;9.97;4.70;;;4.70;98.00;;;;;;5014079;28;20465;-87
2024/02/02 01:19:39;;;;;;;11.13;4.33;;;4.80;98.00;;;;;;5013572;28;20460;-87
2024/02/02 01:22:07;;;;;;;6.70;3.83;;;4.80;98.00;;;;;;5013870;28;20459;-88
2024/02/02 01:24:34;;;;;;;8.70;4.20;;;4.80;98.00;;;;;;5013813;28;20807;-87
2024/02/02 01:27:01;;;;;;;9.77;4.93;;;4.90;98.00;;;;;;5013644;28;20452;-87
2024/02/02 01:29:30;;;;;;;7.97;4.20;;;4.90;98.00;;;;;;5013605;28;20878;-87
2024/02/02 01:31:57;;;;;;;12.90;4.00;;;4.90;98.00;;;;;;5013406;28;20497;-88
2024/02/02 01:34:24;;;;;;;7.70;3.80;;;5.00;98.00;;;;;;5013555;28;20466;-87
2024/02/02 01:36:52;;;;;;;8.27;4.13;;;5.00;98.00;;;;;;5013654;28;20463;-88
2024/02/02 01:39:19;;;;;;;16.57;6.33;;;5.00;98.00;;;;;;5013133;28;20779;-87
2024/02/02 01:41:46;;;;;;;10.73;5.40;;;4.90;98.00;;;;;;5013402;28;20475;-87
2024/02/02 01:44:14;;;;;;;11.87;4.80;;;4.70;98.00;;;;;;5013462;28;20465;-88
2024/02/02 01:46:46;;;;;;;7.90;3.90;;;4.50;98.00;;;;;;5013301;28;20505;-87
2024/02/02 01:49:13;;;;;;;8.23;4.10;;;4.70;98.00;;;;;;5013137;28;20498;-87
2024/02/02 01:51:41;;;;;;;7.07;4.10;;;4.70;98.00;;;;;;5012982;28;20500;-87
2024/02/02 01:54:09;;;;;;;8.13;4.40;;;4.90;98.00;;;;;;5013122;28;20471;-88
2024/02/02 01:56:36;;;;;;;7.70;4.63;;;4.90;98.00;;;;;;5013170;28;20464;-87
2024/02/02 01:59:05;;;;;;;8.17;4.40;;;4.80;98.00;;;;;;5013210;28;20606;-87
2024/02/02 02:01:32;;;;;;;10.00;4.30;;;4.80;98.00;;;;;;5013281;28;20482;-88
2024/02/02 02:04:01;;;;;;;11.30;5.07;;;4.80;98.00;;;;;;5013238;28;20843;-87
2024/02/02 02:06:28;;;;;;;8.70;4.67;;;4.80;98.00;;;;;;5013114;28;20469;-88
2024/02/02 02:08:56;;;;;;;14.50;5.00;;;4.70;98.00;;;;;;5012862;28;20480;-87
2024/02/02 02:11:23;;;;;;;12.17;5.13;;;4.60;98.00;;;;;;5013399;28;20481;-87
2024/02/02 02:13:50;;;;;;;8.87;4.70;;;4.50;98.00;;;;;;5013472;28;20988;-87
2024/02/02 02:16:17;;;;;;;10.10;4.90;;;4.60;98.00;;;;;;5012851;28;20452;-87
2024/02/02 02:18:44;;;;;;;13.43;4.50;;;4.70;98.00;;;;;;5012732;28;20469;-87
2024/02/02 02:21:25;;;;;;;12.80;5.70;;;4.70;98.00;;;;;;5011738;28;20489;-88
2024/02/02 02:23:52;;;;;;;9.50;4.67;;;4.60;98.00;;;;;;5012718;28;20468;-88
2024/02/02 02:26:20;;;;;;;17.00;4.50;;;4.50;98.00;;;;;;5012420;28;20471;-87
2024/02/02 02:28:48;;;;;;;9.67;3.90;;;4.40;98.00;;;;;;5012459;28;20463;-87
2024/02/02 02:31:16;;;;;;;9.00;4.47;;;4.30;98.00;;;;;;5012469;28;20486;-87
2024/02/02 02:33:44;;;;;;;11.33;5.23;;;4.20;98.00;;;;;;5012810;28;20545;-88
2024/02/02 02:36:13;;;;;;;10.47;4.63;;;4.20;98.00;;;;;;5012464;28;20465;-87
2024/02/02 02:38:43;;;;;;;11.80;5.00;;;4.30;98.00;;;;;;5012323;28;20463;-87
2024/02/02 02:41:10;;;;;;;11.77;5.00;;;4.30;98.00;;;;;;5012122;28;20568;-87
2024/02/02 02:43:38;;;;;;;10.90;4.70;;;4.30;98.00;;;;;;5012618;28;20489;-87
2024/02/02 02:46:05;;;;;;;6.67;3.73;;;4.40;98.00;;;;;;5012610;28;20464;-87
2024/02/02 02:48:33;;;;;;;11.23;5.00;;;4.40;98.00;;;;;;5012097;28;20467;-87
2024/02/02 02:51:00;;;;;;;8.07;4.17;;;4.50;98.00;;;;;;5012403;28;20502;-88
2024/02/02 02:53:28;;;;;;;8.90;4.00;;;4.40;98.00;;;;;;5012317;28;20461;-87
2024/02/02 02:55:56;;;;;;;11.87;5.23;;;4.40;98.00;;;;;;5012531;28;20476;-87
2024/02/02 02:58:23;;;;;;;8.70;4.40;;;4.40;98.00;;;;;;5012049;28;20489;-87
2024/02/02 03:00:52;;;;;;;10.20;4.80;;;4.30;98.00;;;;;;5012338;28;20508;-87
2024/02/02 03:03:20;;;;;;;10.80;5.13;;;4.30;98.00;;;;;;5012151;28;20472;-87
2024/02/02 03:05:47;;;;;;;10.63;4.60;;;4.40;98.00;;;;;;5011818;28;20507;-87
2024/02/02 03:08:14;;;;;;;10.13;5.23;;;4.40;98.00;;;;;;5012023;28;20556;-87
2024/02/02 03:10:41;;;;;;;8.77;4.70;;;4.40;98.00;;;;;;5012189;28;21016;-87
2024/02/02 03:13:10;;;;;;;9.33;4.73;;;4.50;98.00;;;;;;5012031;28;20849;-87
2024/02/02 03:15:39;;;;;;;10.53;5.30;;;4.60;98.00;;;;;;5011884;28;20465;-87
2024/02/02 03:18:07;;;;;;;8.90;4.50;;;4.60;98.00;;;;;;5011932;28;20457;-87
2024/02/02 03:20:34;;;;;;;10.47;4.40;;;4.60;98.00;;;;;;5012088;28;20843;-87
2024/02/02 03:23:02;;;;;;;15.33;5.20;;;4.60;98.00;;;;;;5012029;28;20549;-87
2024/02/02 03:25:29;;;;;;;24.63;5.27;;;4.60;98.00;;;;;;5011777;28;20466;-88
2024/02/02 03:27:56;;;;;;;11.33;5.23;;;4.50;98.00;;;;;;5012674;28;20829;-87
2024/02/02 03:30:26;;;;;;;10.70;5.53;;;4.50;98.00;;;;;;5012135;28;20492;-88
2024/02/02 03:32:54;;;;;;;14.87;5.77;;;4.50;98.00;;;;;;5012888;28;20524;-88
2024/02/02 03:35:21;;;;;;;8.73;4.73;;;4.60;98.00;;;;;;5011993;28;20468;-88
2024/02/02 03:37:48;;;;;;;14.70;4.97;;;4.60;98.00;;;;;;5013943;28;20458;-88
2024/02/02 03:40:15;;;;;;;9.73;4.73;;;4.70;98.00;;;;;;5011462;28;20487;-87
2024/02/02 03:42:42;;;;;;;11.27;4.57;;;4.80;98.00;;;;;;5011869;28;20516;-87
2024/02/02 03:45:10;;;;;;;9.37;4.37;;;4.70;98.00;;;;;;5011700;28;20471;-87
2024/02/02 03:47:39;;;;;;;13.90;5.63;;;4.70;98.00;;;;;;5011755;28;20471;-87
2024/02/02 03:50:07;;;;;;;11.80;5.20;;;4.60;98.00;;;;;;5011217;28;21013;-87
2024/02/02 03:52:34;;;;;;;10.53;5.00;;;4.50;98.00;;;;;;5011558;28;20951;-87
2024/02/02 03:55:01;;;;;;;11.70;5.03;;;4.60;98.00;;;;;;5011387;28;20463;-87
2024/02/02 03:57:28;;;;;;;11.83;5.80;;;4.60;98.00;;;;;;5011797;28;20451;-87
2024/02/02 03:59:55;;;;;;;9.17;4.60;;;4.60;98.00;;;;;;5011608;28;20485;-87
2024/02/02 04:02:22;;;;;;;10.70;4.87;;;4.70;98.00;;;;;;5011739;28;20469;-87
2024/02/02 04:04:51;;;;;;;9.53;4.80;;;4.60;98.00;;;;;;5011617;28;20462;-88
2024/02/02 04:07:18;;;;;;;14.63;5.33;;;4.60;98.00;;;;;;5011616;28;20562;-86
2024/02/02 04:09:45;;;;;;;12.77;5.77;;;4.60;98.00;;;;;;5013431;28;21027;-87
2024/02/02 04:12:12;;;;;;;14.77;6.00;;;4.80;98.00;;;;;;5013263;28;20556;-87
2024/02/02 04:14:40;;;;;;;11.50;5.30;;;4.80;98.00;;;;;;5013208;28;20467;-88
2024/02/02 04:17:07;;;;;;;9.73;5.00;;;4.70;98.00;;;;;;5013264;28;20454;-88
2024/02/02 04:19:34;;;;;;;12.33;5.43;;;4.70;98.00;;;;;;5013048;28;20454;-88
2024/02/02 04:22:02;;;;;;;11.30;5.47;;;4.70;98.00;;;;;;5012883;28;20496;-87
2024/02/02 04:24:30;;;;;;;11.40;5.50;;;4.70;98.00;;;;;;5013573;28;20506;-88
2024/02/02 04:26:57;;;;;;;11.47;5.60;;;4.70;98.00;;;;;;5014124;28;20455;-88
2024/02/02 04:29:24;;;;;;;11.73;5.17;;;4.70;98.00;;;;;;5013430;28;20464;-87
2024/02/02 04:31:51;;;;;;;15.40;5.53;;;4.70;98.00;;;;;;5013423;28;21036;-88
2024/02/02 04:34:18;;;;;;;10.30;5.10;;;4.80;98.00;;;;;;5013364;28;20463;-88
2024/02/02 04:36:46;;;;;;;10.00;4.93;;;4.70;98.00;;;;;;5012807;28;20465;-87
2024/02/02 04:39:14;;;;;;;12.60;5.40;;;4.70;98.00;;;;;;5013721;28;20463;-87
2024/02/02 04:41:41;;;;;;;11.83;5.47;;;4.70;98.00;;;;;;5012830;28;20827;-88
2024/02/02 04:44:09;;;;;;;12.20;5.93;;;4.70;98.00;;;;;;5013213;28;20491;-87
2024/02/02 04:46:36;;;;;;;12.53;6.07;;;4.80;98.00;;;;;;5012917;28;20470;-88
2024/02/02 04:49:03;;;;;;;15.30;6.37;;;4.90;98.00;;;;;;5015312;28;20468;-87
2024/02/02 04:51:30;;;;;;;16.40;6.37;;;4.90;98.00;;;;;;5016201;28;20498;-87
2024/02/02 04:53:57;;;;;;;13.53;5.77;;;4.80;98.00;;;;;;5016710;28;20556;-87
2024/02/02 04:56:39;;;;;;;16.37;6.50;;;4.80;98.00;;;;;;5016979;28;21026;-87
2024/02/02 04:59:07;;;;;;;13.13;6.13;;;4.80;98.00;;;;;;5016433;28;20484;-87
2024/02/02 05:01:34;;;;;;;14.53;6.20;;;4.80;98.00;;;;;;5016054;28;20511;-88
2024/02/02 05:04:01;;;;;;;16.23;7.30;;;4.70;98.00;;;;;;5016009;28;20462;-88
2024/02/02 05:06:28;;;;;;;13.60;6.20;;;4.80;98.00;;;;;;5016424;28;20490;-88
2024/02/02 05:08:58;;;;;;;17.60;6.30;;;4.80;98.00;;;;;;5016036;28;20457;-87
2024/02/02 05:11:26;;;;;;;15.67;6.33;;;4.90;98.00;;;;;;5015970;28;20554;-88
2024/02/02 05:13:53;;;;;;;15.00;6.63;;;4.90;98.00;;;;;;5016036;28;20541;-87
2024/02/02 05:16:22;;;;;;;20.03;6.77;;;4.90;98.00;;;;;;5016282;28;20464;-88
2024/02/02 05:18:50;;;;;;;13.43;6.30;;;4.90;98.00;;;;;;5016198;28;20457;-88
2024/02/02 05:21:20;;;;;;;18.10;7.20;;;4.90;98.00;;;;;;5016712;28;20513;-88
2024/02/02 05:23:47;;;;;;;17.30;7.03;;;4.90;98.00;;;;;;5016211;28;20464;-88
2024/02/02 05:26:14;;;;;;;20.27;7.77;;;4.90;98.00;;;;;;5015016;28;20455;-88
2024/02/02 05:28:44;;;;;;;20.17;7.27;;;4.90;98.00;;;;;;5015680;28;20538;-87
2024/02/02 05:31:11;;;;;;;19.30;6.37;;;4.80;98.00;;;;;;5015498;28;20582;-87
2024/02/02 05:33:38;;;;;;;19.30;7.07;;;4.90;98.00;;;;;;5015318;28;20460;-88
2024/02/02 05:36:06;;;;;;;18.60;7.33;;;4.90;98.00;;;;;;5015939;28;20460;-87
2024/02/02 05:38:33;;;;;;;18.70;7.13;;;4.90;98.00;;;;;;5016019;28;20461;-87
2024/02/02 05:41:00;;;;;;;18.10;7.73;;;4.90;98.00;;;;;;5016709;28;20569;-87
2024/02/02 05:43:27;;;;;;;16.40;7.07;;;4.90;98.00;;;;;;5015695;28;20936;-87
2024/02/02 05:45:56;;;;;;;15.20;7.17;;;4.90;98.00;;;;;;5015213;28;20583;-87
2024/02/02 05:48:23;;;;;;;17.83;7.50;;;4.90;98.00;;;;;;5015398;28;20986;-87
2024/02/02 05:50:50;;;;;;;17.40;7.03;;;4.90;98.00;;;;;;5015797;28;20935;-87
2024/02/02 05:53:20;;;;;;;18.87;6.70;;;4.80;98.00;;;;;;5015508;28;20888;-88
2024/02/02 05:55:47;;;;;;;21.10;7.30;;;4.80;98.00;;;;;;5015834;28;20463;-87
2024/02/02 05:58:14;;;;;;;17.13;7.10;;;4.90;98.00;;;;;;5015091;28;20448;-88
2024/02/02 06:00:41;;;;;;;18.73;6.83;;;5.00;98.00;;;;;;5013986;28;20562;-87
2024/02/02 06:03:10;;;;;;;16.43;6.73;;;5.00;98.00;;;;;;5013017;28;20460;-87
2024/02/02 06:05:37;;;;;;;18.10;7.07;;;5.00;98.00;;;;;;5013166;28;20460;-87
2024/02/02 06:08:06;;;;;;;17.00;7.20;;;5.00;98.00;;;;;;5013223;28;20490;-87
2024/02/02 06:10:33;;;;;;;17.40;6.87;;;5.00;98.00;;;;;;5012864;28;20870;-87
2024/02/02 06:13:01;;;;;;;20.30;7.00;;;5.00;98.00;;;;;;5013214;28;20501;-88
2024/02/02 06:15:28;;;;;;;13.50;6.50;;;5.00;98.00;;;;;;5012757;28;20473;-87
2024/02/02 06:17:55;;;;;;;15.87;6.63;;;5.10;98.00;;;;;;5012683;28;20452;-87
2024/02/02 06:20:24;;;;;;;17.60;7.20;;;5.10;98.00;;;;;;5012488;28;20607;-87
2024/02/02 06:22:51;;;;;;;16.53;6.90;;;5.10;98.00;;;;;;5012969;28;21015;-87
2024/02/02 06:25:18;;;;;;;17.23;7.37;;;5.10;98.00;;;;;;5012807;28;20470;-87
2024/02/02 06:27:45;;;;;;;16.07;6.60;;;5.20;98.00;;;;;;5012876;28;20452;-87
2024/02/02 06:30:14;;;;;;;18.03;6.00;;;5.10;98.00;;;;;;5012305;28;20490;-87
2024/02/02 06:32:45;;;;;;;17.83;7.10;;;5.10;98.00;;;;;;5012871;28;20923;-87
2024/02/02 06:35:13;;;;;;;16.80;7.10;;;5.10;98.00;;;;;;5012583;28;20469;-87
2024/02/02 06:37:42;;;;;;;15.50;6.40;;;5.10;98.00;;;;;;5012766;28;20470;-87
2024/02/02 06:40:10;;;;;;;15.43;6.50;;;5.20;98.00;;;;;;5012478;28;20491;-87
2024/02/02 06:42:37;;;;;;;14.17;6.90;;;5.20;98.00;;;;;;5012794;28;20470;-87
2024/02/02 06:45:06;;;;;;;18.77;7.40;;;5.30;98.00;;;;;;5012236;28;20869;-87
2024/02/02 06:47:33;;;;;;;17.70;6.80;;;5.30;98.00;;;;;;5012100;28;20572;-87
2024/02/02 06:50:00;;;;;;;15.20;7.17;;;5.40;98.00;;;;;;5012123;28;20494;-88
2024/02/02 06:52:27;;;;;;;15.60;6.90;;;5.30;98.00;;;;;;5012997;28;20531;-87
2024/02/02 06:54:56;;;;;;;16.87;6.50;;;5.30;98.00;;;;;;5013183;28;20553;-87
2024/02/02 06:57:25;;;;;;;15.70;6.30;;;5.20;98.00;;;;;;5012909;28;20945;-87
2024/02/02 06:59:53;;;;;;;19.73;7.83;;;5.20;98.00;;;;;;5012581;28;20464;-89
2024/02/02 07:02:22;;;;;;;17.07;7.13;;;5.20;98.00;;;;;;5012983;28;20923;-90
2024/02/02 07:04:49;;;;;;;16.77;7.30;;;5.20;98.00;;;;;;5012483;28;20453;-88
2024/02/02 07:07:16;;;;;;;20.40;7.63;;;5.10;98.00;;;;;;5012797;28;20535;-89
2024/02/02 07:09:48;;;;;;;17.43;7.30;;;5.00;98.00;;;;;;5012336;28;20845;-89
2024/02/02 07:12:42;;;;;;;19.63;8.17;;;5.20;98.00;;;;;;5012385;28;20483;-89
2024/02/02 07:15:17;;;;;;;20.07;8.23;;;5.30;98.00;;;;;;5013282;28;20441;-89
2024/02/02 07:17:45;;;;;;;22.53;8.57;;;5.20;98.00;;;;;;5012882;28;20457;-88
2024/02/02 07:20:59;;;;;;;14.30;6.40;;;5.10;98.00;;;;;;5012304;28;20580;-87
2024/02/02 07:23:35;;;;;;;15.10;6.80;;;5.20;98.00;;;;;;5012531;28;20505;-88
2024/02/02 07:26:06;;;;;;;14.90;6.20;;;5.20;98.00;;;;;;5012267;28;20463;-87
2024/02/02 07:28:36;;;;;;;18.93;6.90;;;5.20;98.00;;;;;;5011938;28;20559;-88
2024/02/02 07:31:04;;;;;;;18.83;7.03;;;5.20;98.00;;;;;;5012136;28;20492;-87
2024/02/02 07:33:37;;;;;;;16.27;7.97;;;5.20;98.00;;;;;;5012415;28;20465;-88
2024/02/02 07:36:04;;;;;;;18.83;7.10;;;5.30;98.00;;;;;;5012494;28;20440;-88
2024/02/02 07:38:52;;;;;;;25.17;10.57;;;5.30;98.00;;;;;;5011900;28;20634;-88
2024/02/02 07:41:23;;;;;;;19.17;8.27;;;5.50;98.00;;;;;;5012332;28;20555;-88
2024/02/02 07:43:52;;;;;;;16.00;7.43;;;5.50;98.00;;;;;;5012528;28;20520;-88
2024/02/02 07:46:20;;;;;;;17.17;7.70;;;5.50;98.00;;;;;;5012418;28;21098;-88
2024/02/02 07:48:48;;;;;;;17.43;8.10;;;5.40;98.00;;;;;;5012024;28;20488;-88
2024/02/02 07:51:17;;;;;;;19.30;7.53;;;5.40;98.00;;;;;;5012283;28;20497;-88
2024/02/02 07:53:45;;;;;;;19.00;7.20;;;5.30;98.00;;;;;;5012290;28;20456;-88
2024/02/02 07:56:13;;;;;;;20.30;8.73;;;5.30;98.00;;;;;;5012338;28;20445;-87
2024/02/02 07:58:41;;;;;;;18.10;7.67;;;5.20;98.00;;;;;;5011553;28;20487;-88
2024/02/02 08:01:10;;;;;;;20.80;8.30;;;5.20;98.00;;;;;;5012325;28;20479;-87
2024/02/02 08:03:37;;;;;;;23.50;8.00;;;5.20;98.00;;;;;;5012584;28;20459;-87
2024/02/02 08:06:05;;;;;;;25.87;9.00;;;5.20;98.00;;;;;;5012403;28;20957;-87
2024/02/02 08:08:33;;;;;;;17.20;7.63;;;5.50;98.00;;;;;;5011601;28;20466;-87
2024/02/02 08:11:00;;;;;;;17.03;7.43;;;5.60;98.00;;;;;;5012221;28;20501;-88
2024/02/02 08:13:28;;;;;;;18.53;7.47;;;5.70;98.00;;;;;;5012112;28;20448;-87
2024/02/02 08:15:55;;;;;;;20.10;7.57;;;5.90;98.00;;;;;;5011917;28;20467;-87
2024/02/02 08:18:23;;;;;;;19.30;7.53;;;6.00;98.00;;;;;;5012101;28;20530;-87
2024/02/02 08:20:51;;;;;;;15.67;7.40;;;5.90;98.00;;;;;;5012136;28;20478;-87
2024/02/02 08:23:18;;;;;;;19.90;8.27;;;5.90;98.00;;;;;;5015627;28;20459;-88
2024/02/02 08:25:45;;;;;;;17.23;7.63;;;5.80;98.00;;;;;;5015429;28;20463;-87
2024/02/02 08:28:12;;;;;;;19.70;7.97;;;5.70;98.00;;;;;;5015410;28;20459;-87
2024/02/02 08:30:39;;;;;;;21.60;8.10;;;5.60;98.00;;;;;;5015725;28;20481;-87
2024/02/02 08:33:07;;;;;;;18.50;7.37;;;5.60;98.00;;;;;;5015789;28;20464;-87
2024/02/02 08:35:35;;;;;;;20.47;8.63;;;5.60;98.00;;;;;;5014076;28;20473;-88
2024/02/02 08:38:04;;;;;;;19.60;8.50;;;5.60;98.00;;;;;;5015258;28;20470;-86
2024/02/02 08:40:40;;;;;;;18.77;8.13;;;5.60;98.00;;;;;;5014160;28;20480;-86
2024/02/02 08:43:11;;;;;;;16.47;7.67;;;5.60;98.00;;;;;;5015443;28;20944;-87
2024/02/02 08:46:09;;;;;;;19.87;7.27;;;5.60;98.00;;;;;;5015893;28;20957;-87
2024/02/02 08:48:39;;;;;;;16.87;7.63;;;5.60;98.00;;;;;;5015522;28;20459;-87
2024/02/02 08:51:46;;;;;;;27.77;8.47;;;5.70;98.00;;;;;;5015277;28;20911;-88
2024/02/02 08:54:36;;;;;;;19.33;8.33;;;5.80;98.00;;;;;;5016106;28;20456;-88
2024/02/02 08:57:36;;;;;;;16.83;7.27;;;5.90;98.00;;;;;;5015986;28;20461;-88
2024/02/02 09:00:16;;;;;;;19.33;7.23;;;5.80;98.00;;;;;;5014830;28;20480;-89
2024/02/02 09:03:23;;;;;;;20.70;8.30;;;5.90;98.00;;;;;;5015515;28;20457;-89
2024/02/02 09:05:57;;;;;;;14.37;7.20;;;5.90;98.00;;;;;;5014444;28;20459;-93
2024/02/02 09:08:34;;;;;;;17.57;6.70;;;6.00;98.00;;;;;;5015704;28;20462;-88
2024/02/02 09:11:26;;;;;;;17.43;7.20;;;6.20;98.00;;;;;;5014961;28;21163;-89
2024/02/02 09:14:06;;;;;;;21.67;9.40;;;6.50;98.00;;;;;;5015346;28;20448;-89
2024/02/02 09:16:45;;;;;;;23.30;10.37;;;6.60;98.00;;;;;;5015294;28;20443;-89
2024/02/02 09:19:25;;;;;;;18.77;8.40;;;6.50;98.00;;;;;;5014258;28;20447;-90
2024/02/02 09:21:53;;;;;;;19.20;7.70;;;6.40;98.00;;;;;;5014984;28;20899;-89
2024/02/02 09:24:32;;;;;;;16.47;7.60;;;6.30;98.00;;;;;;5014955;28;21025;-89
2024/02/02 09:27:03;;;;;;;20.90;8.40;;;6.30;98.00;;;;;;5019970;28;20456;-91
2024/02/02 09:29:31;;;;;;;20.73;8.30;;;6.30;98.00;;;;;;5026823;28;20521;-90
2024/02/02 09:31:58;;;;;;;17.83;8.43;;;6.30;98.00;;;;;;5029608;28;21090;-89
2024/02/02 09:35:00;;;;;;;18.50;7.70;;;6.30;98.00;;;;;;5032248;28;20525;-91
2024/02/02 09:37:39;;;;;;;14.50;7.10;;;6.40;98.00;;;;;;5034063;28;20519;-91
2024/02/02 09:40:42;;;;;;;16.80;7.70;;;6.40;98.00;;;;;;5026452;28;20477;-90
2024/02/02 09:43:16;;;;;;;19.67;8.10;;;6.60;98.00;;;;;;5023178;28;20963;-90
2024/02/02 09:46:00;;;;;;;23.07;9.00;;;6.80;98.00;;;;;;5020958;28;20450;-90
2024/02/02 09:48:43;;;;;;;19.27;9.20;;;6.90;98.00;;;;;;5018913;28;20474;-90
2024/02/02 09:51:22;;;;;;;20.93;8.83;;;7.00;98.00;;;;;;5017757;28;20508;-90
2024/02/02 09:54:07;;;;;;;18.30;8.60;;;7.10;98.00;;;;;;5016187;28;20816;-89
2024/02/02 09:56:46;;;;;;;22.00;8.77;;;6.90;98.00;;;;;;5015329;28;20893;-90
2024/02/02 09:59:26;;;;;;;19.57;9.10;;;6.90;98.00;;;;;;5013960;28;20467;-90
2024/02/02 10:02:20;;;;;;;21.10;9.47;;;6.90;98.00;;;;;;5014469;28;20475;-90
2024/02/02 10:04:57;;;;;;;18.60;8.60;;;7.00;98.00;;;;;;5008629;28;20472;-90
2024/02/02 10:07:36;;;;;;;27.60;8.70;;;7.10;98.00;;;;;;5014233;28;20466;-89
2024/02/02 10:10:24;;;;;;;24.77;9.40;;;7.30;98.00;;;;;;5013562;28;20478;-90
2024/02/02 10:13:09;;;;;;;23.40;9.53;;;7.50;98.00;;;;;;5014127;28;20531;-91
2024/02/02 10:15:50;;;;;;;21.10;9.77;;;7.40;98.00;;;;;;5014103;28;20488;-89
2024/02/02 10:18:44;;;;;;;24.73;9.77;;;7.50;98.00;;;;;;5012741;28;20448;-87
2024/02/02 10:21:24;;;;;;;24.20;10.50;;;7.40;98.00;;;;;;5013306;28;20486;-88
2024/02/02 10:24:12;;;;;;;21.43;9.03;;;7.50;98.00;;;;;;5013460;28;20458;-90
2024/02/02 10:27:26;;;;;;;20.83;9.50;;;7.50;98.00;;;;;;5014001;28;20518;-90
2024/02/02 10:30:10;;;;;;;19.87;9.37;;;7.60;98.00;;;;;;5001242;28;20449;-89
2024/02/02 10:32:57;;;;;;;18.60;8.43;;;7.60;98.00;;;;;;5013528;28;20474;-90
2024/02/02 10:35:34;;;;;;;22.90;9.40;;;7.70;98.00;;;;;;5013257;28;20934;-89
2024/02/02 10:38:16;;;;;;;21.20;9.20;;;7.70;98.00;;;;;;5013384;28;20439;-90
2024/02/02 10:40:57;;;;;;;20.60;9.07;;;8.00;98.00;;;;;;5013433;28;20486;-90
2024/02/02 10:43:45;;;;;;;21.53;8.77;;;8.10;98.00;;;;;;5013656;28;20443;-89
2024/02/02 10:46:35;;;;;;;17.53;8.50;;;8.30;98.00;;;;;;5013333;28;20447;-88
2024/02/02 10:49:25;;;;;;;25.73;9.40;;;8.50;98.00;;;;;;5011936;28;20454;-90
2024/02/02 10:52:05;;;;;;;13.67;6.97;;;8.80;98.00;;;;;;5012766;28;20502;-89
2024/02/02 10:54:48;;;;;;;17.20;8.10;;;9.20;98.00;;;;;;5012863;28;20467;-87
2024/02/02 10:57:31;;;;;;;15.57;6.70;;;9.30;98.00;;;;;;5013058;28;20447;-90
2024/02/02 11:00:13;;;;;;;14.73;7.53;;;9.20;98.00;;;;;;5012423;28;20463;-90
2024/02/02 11:02:58;;;;;;;14.90;7.93;;;9.30;98.00;;;;;;5011981;28;20487;-88
2024/02/02 11:05:36;;;;;;;13.53;7.30;;;9.50;98.00;;;;;;5013169;28;20831;-88
2024/02/02 11:08:06;;;;;;;15.10;7.00;;;9.50;98.00;;;;;;5012962;28;20452;-88
2024/02/02 11:10:39;;;;;;;13.83;6.47;;;9.60;98.00;;;;;;5012093;28;20482;-88
2024/02/02 11:13:13;;;;;;;17.17;6.40;;;9.70;98.00;;;;;;5012335;28;20480;-88
2024/02/02 11:15:52;;;;;;;10.77;5.00;;;9.70;98.00;;;;;;5012651;28;20807;-88
2024/02/02 11:18:39;;;;;;;10.70;4.43;;;9.90;98.00;;;;;;5012107;28;20951;-90
2024/02/02 11:21:20;;;;;;;8.10;4.20;;;10.00;98.00;;;;;;5008633;23;20490;-68
2024/02/02 11:23:56;;;;;;;7.80;4.17;;;10.30;98.00;;;;;;4992689;28;20488;-68
2024/02/02 11:26:27;;;;;;;9.07;4.20;;;10.40;98.00;;;;;;4992584;28;20457;-68
2024/02/02 11:29:05;;;;;;;7.97;4.07;;;10.40;98.00;;;;;;4992578;28;20970;-67
2024/02/02 11:31:39;;;;;;;8.13;4.63;;;10.40;98.00;;;;;;4991161;28;20457;-67
2024/02/02 11:34:19;;;;;;;7.00;3.87;;;10.40;98.00;;;;;;4992252;28;21011;-67
2024/02/02 11:37:04;;;;;;;6.30;4.10;;;10.50;98.00;;;;;;4992573;28;20515;-67
2024/02/02 11:39:42;;;;;;;9.83;4.60;;;10.60;98.00;;;;;;4993056;28;20466;-67
2024/02/02 11:42:14;;;;;;;7.63;4.13;;;10.90;98.00;;;;;;4992688;28;20970;-68
2024/02/02 11:44:43;;;;;;;6.83;3.50;;;11.10;98.00;;;;;;4992480;28;20540;-67
2024/02/02 11:47:12;;;;;;;8.77;4.60;;;11.20;98.00;;;;;;4992276;28;20456;-67
2024/02/02 11:49:47;;;;;;;7.00;3.83;;;11.30;98.00;;;;;;4991421;28;20459;-67
2024/02/02 11:52:23;;;;;;;6.93;3.63;;;11.40;98.00;;;;;;4992499;28;20487;-68
2024/02/02 11:55:01;;;;;;;6.40;3.67;;;11.40;98.00;;;;;;4992307;28;20463;-68
2024/02/02 11:57:31;;;;;;;5.47;3.50;;;11.50;98.00;;;;;;4993289;28;21238;-67
2024/02/02 12:00:03;;;;;;;9.60;3.93;;;11.50;98.00;;;;;;4996395;28;20942;-68
2024/02/02 12:02:44;;;;;;;5.40;3.27;;;11.80;98.00;;;;;;4995030;28;20452;-67
2024/02/02 12:05:18;;;;;;;6.97;3.50;;;12.00;98.00;;;;;;4996190;28;20459;-67
2024/02/02 12:07:53;;;;;;;6.10;3.33;;;12.20;98.00;;;;;;4996082;28;20462;-67
2024/02/02 12:10:24;;;;;;;5.83;2.80;;;12.20;98.00;;;;;;4996118;28;20460;-67
2024/02/02 12:12:56;;;;;;;6.27;2.83;;;12.30;98.00;;;;;;4995998;28;20499;-67
2024/02/02 12:15:23;;;;;;;4.77;3.10;;;12.30;98.00;;;;;;4996138;28;20511;-67
2024/02/02 12:17:53;;;;;;;5.70;3.40;;;12.20;98.00;;;;;;4995913;28;20487;-67
2024/02/02 12:20:22;;;;;;;4.80;2.83;;;12.20;98.00;;;;;;4995584;28;20570;-68
2024/02/02 12:22:50;;;;;;;4.23;2.70;;;12.30;98.00;;;;;;4995777;28;20967;-67
2024/02/02 12:25:19;;;;;;;5.17;2.90;;;12.40;98.00;;;;;;4996033;28;20513;-67
2024/02/02 12:27:47;;;;;;;4.53;2.97;;;12.40;98.00;;;;;;4995871;28;20482;-67
2024/02/02 12:30:16;;;;;;;4.30;2.50;;;12.50;98.00;;;;;;4995835;28;20454;-68
2024/02/02 12:32:53;;;;;;;4.97;2.97;;;12.60;98.00;;;;;;4995682;28;20487;-67
2024/02/02 12:35:24;;;;;;;5.13;2.50;;;12.70;98.00;;;;;;4995694;28;20468;-67
2024/02/02 12:37:52;;;;;;;3.17;2.47;;;12.70;98.00;;;;;;4995812;28;20465;-67
2024/02/02 12:40:20;;;;;;;3.20;2.20;;;12.90;98.00;;;;;;4995730;28;20453;-67
2024/02/02 12:42:48;;;;;;;3.30;2.30;;;12.90;98.00;;;;;;4995744;28;21078;-67
2024/02/02 12:45:16;;;;;;;2.90;2.10;;;12.90;98.00;;;;;;4995741;28;20845;-67
2024/02/02 12:47:44;;;;;;;4.13;2.20;;;12.90;98.00;;;;;;4995596;28;20467;-67
2024/02/02 12:50:17;;;;;;;3.27;2.30;;;12.90;98.00;;;;;;4995721;28;20459;-67
2024/02/02 12:52:46;;;;;;;5.63;2.00;;;12.90;98.00;;;;;;4995556;28;20931;-67
2024/02/02 12:55:14;;;;;;;2.80;2.27;;;12.90;98.00;;;;;;4995753;28;20450;-68
2024/02/02 12:57:42;;;;;;;2.63;2.00;;;13.00;98.00;;;;;;4994440;28;20467;-67
2024/02/02 13:00:14;;;;;;;2.73;2.10;;;13.10;98.00;;;;;;4993675;28;20984;-68
2024/02/02 13:02:42;;;;;;;3.70;2.10;;;13.30;98.00;;;;;;4995156;28;20849;-67
2024/02/02 13:05:12;;;;;;;2.73;2.10;;;13.30;98.00;;;;;;4995462;28;20479;-67
2024/02/02 13:07:39;;;;;;;2.23;1.80;;;13.50;98.00;;;;;;4993311;28;20462;-68
2024/02/02 13:10:10;;;;;;;2.77;2.10;;;13.60;98.00;;;;;;4994288;28;20460;-67